Time;durP1;ratioP1;P1;durP2;ratioP2;P2;SDS_P1;SDS_P2;PMS_P1;PMS_P2;Temp;Humidity;BMP_temperature;BMP_pressure;BME280_temperature;BME280_humidity;BME280_pressure;Samples;Min_cycle;Max_cycle;Signal;HPM_P1;HPM_P2
2023/12/28 00:00:53;;;;;;;2.00;1.90;;;;;;;;;;4992265;28;21019;-78
2023/12/28 00:03:18;;;;;;;6.60;2.03;;;;;;;;;;4996471;28;20277;-78
2023/12/28 00:05:44;;;;;;;2.07;1.77;;;;;;;;;;4985545;28;20202;-76
2023/12/28 00:08:11;;;;;;;4.27;2.00;;;;;;;;;;5002643;28;20296;-77
2023/12/28 00:10:37;;;;;;;2.17;1.77;;;;;;;;;;4986685;28;20252;-77
2023/12/28 00:13:07;;;;;;;3.73;1.83;;;;;;;;;;4985898;28;20244;-76
2023/12/28 00:15:33;;;;;;;1.77;1.67;;;;;;;;;;5014725;28;20241;-77
2023/12/28 00:18:01;;;;;;;3.17;2.07;;;;;;;;;;4999497;28;20252;-76
2023/12/28 00:20:26;;;;;;;4.10;1.77;;;;;;;;;;5000430;28;20237;-76
2023/12/28 00:22:54;;;;;;;2.40;1.60;;;;;;;;;;4993889;28;20215;-78
2023/12/28 00:25:19;;;;;;;3.57;2.00;;;;;;;;;;5008435;28;20214;-77
2023/12/28 00:27:45;;;;;;;2.73;1.30;;;;;;;;;;5001412;28;20217;-76
2023/12/28 00:30:12;;;;;;;2.03;1.20;;;;;;;;;;4981690;28;20221;-78
2023/12/28 00:32:37;;;;;;;1.83;1.60;;;;;;;;;;4979563;28;20220;-77
2023/12/28 00:35:05;;;;;;;3.03;1.43;;;;;;;;;;4996614;28;20230;-76
2023/12/28 00:37:31;;;;;;;1.60;1.50;;;;;;;;;;4979081;28;20301;-77
2023/12/28 00:39:57;;;;;;;3.00;1.20;;;;;;;;;;4987870;28;20245;-77
2023/12/28 00:42:25;;;;;;;1.63;1.30;;;;;;;;;;4988185;28;20233;-76
2023/12/28 00:44:56;;;;;;;1.57;1.20;;;;;;;;;;4965557;28;20234;-77
2023/12/28 00:47:24;;;;;;;3.03;1.27;;;;;;;;;;4974880;28;20277;-78
2023/12/28 00:49:49;;;;;;;2.67;1.10;;;;;;;;;;4984170;28;20209;-76
2023/12/28 00:52:17;;;;;;;1.53;1.43;;;;;;;;;;4970023;28;20214;-79
2023/12/28 00:54:45;;;;;;;2.80;1.20;;;;;;;;;;4970843;28;20225;-79
2023/12/28 00:57:13;;;;;;;2.23;1.40;;;;;;;;;;4964763;28;20221;-79
2023/12/28 00:59:40;;;;;;;2.00;1.70;;;;;;;;;;4985628;28;20623;-78
2023/12/28 01:02:06;;;;;;;1.50;1.30;;;;;;;;;;4960698;28;20603;-79
2023/12/28 01:04:34;;;;;;;1.87;1.30;;;;;;;;;;4975553;28;20313;-78
2023/12/28 01:07:01;;;;;;;1.20;1.10;;;;;;;;;;4995922;28;20221;-79
2023/12/28 01:09:28;;;;;;;2.37;1.30;;;;;;;;;;4986094;28;20217;-79
2023/12/28 01:11:58;;;;;;;1.83;1.43;;;;;;;;;;4996864;28;20321;-79
2023/12/28 01:14:26;;;;;;;1.90;1.53;;;;;;;;;;5009347;28;20228;-78
2023/12/28 01:16:51;;;;;;;1.30;1.20;;;;;;;;;;4967733;28;20225;-77
2023/12/28 01:19:24;;;;;;;1.30;1.20;;;;;;;;;;4993215;28;20225;-76
2023/12/28 01:21:50;;;;;;;2.90;1.70;;;;;;;;;;4977578;28;20222;-77
2023/12/28 01:24:18;;;;;;;1.20;1.10;;;;;;;;;;5014231;28;20272;-77
2023/12/28 01:26:48;;;;;;;3.20;1.60;;;;;;;;;;4993616;28;20225;-77
2023/12/28 01:29:13;;;;;;;2.30;1.50;;;;;;;;;;4954610;28;20233;-77
2023/12/28 01:31:40;;;;;;;1.40;1.23;;;;;;;;;;4975068;28;20217;-77
2023/12/28 01:34:05;;;;;;;1.30;1.20;;;;;;;;;;4968389;28;20214;-78
2023/12/28 01:36:41;;;;;;;2.67;1.53;;;;;;;;;;4966141;28;20871;-78
2023/12/28 01:39:06;;;;;;;1.90;1.50;;;;;;;;;;4986931;28;20229;-79
2023/12/28 01:41:34;;;;;;;1.27;1.10;;;;;;;;;;4977699;28;20309;-79
2023/12/28 01:44:00;;;;;;;1.70;1.30;;;;;;;;;;4963585;28;20210;-80
2023/12/28 01:46:25;;;;;;;4.67;1.47;;;;;;;;;;4963889;28;20294;-79
2023/12/28 01:48:56;;;;;;;2.20;1.20;;;;;;;;;;4961057;28;20218;-80
2023/12/28 01:51:21;;;;;;;1.90;1.43;;;;;;;;;;4956772;28;20213;-79
2023/12/28 01:53:53;;;;;;;2.87;1.60;;;;;;;;;;4967950;28;20277;-78
2023/12/28 01:56:18;;;;;;;1.43;1.20;;;;;;;;;;4976889;28;20225;-78
2023/12/28 01:58:44;;;;;;;3.37;1.40;;;;;;;;;;4966181;28;20222;-77
2023/12/28 02:01:10;;;;;;;1.60;1.50;;;;;;;;;;4985023;28;20231;-78
2023/12/28 02:03:36;;;;;;;1.63;1.43;;;;;;;;;;4974207;28;20276;-77
2023/12/28 02:06:01;;;;;;;3.43;1.57;;;;;;;;;;4969624;28;20238;-77
2023/12/28 02:08:28;;;;;;;1.93;1.40;;;;;;;;;;4971326;28;20264;-77
2023/12/28 02:10:59;;;;;;;1.80;1.40;;;;;;;;;;4980056;28;20311;-81
2023/12/28 02:13:29;;;;;;;9.27;1.63;;;;;;;;;;4961412;28;20681;-79
2023/12/28 02:16:03;;;;;;;2.03;1.63;;;;;;;;;;4960110;28;20232;-78
2023/12/28 02:18:37;;;;;;;2.40;1.43;;;;;;;;;;4962465;28;20261;-78
2023/12/28 02:21:05;;;;;;;1.97;1.60;;;;;;;;;;4979525;28;20230;-77
2023/12/28 02:23:34;;;;;;;3.53;1.57;;;;;;;;;;4973270;28;20222;-78
2023/12/28 02:26:02;;;;;;;1.83;1.60;;;;;;;;;;4982900;28;20226;-78
2023/12/28 02:28:29;;;;;;;2.43;1.50;;;;;;;;;;5006684;28;20240;-77
2023/12/28 02:30:57;;;;;;;2.77;1.90;;;;;;;;;;4981995;28;20612;-79
2023/12/28 02:33:40;;;;;;;3.03;1.53;;;;;;;;;;4960507;28;20228;-78
2023/12/28 02:36:10;;;;;;;2.30;1.70;;;;;;;;;;4973471;28;20633;-78
2023/12/28 02:38:38;;;;;;;2.10;1.90;;;;;;;;;;4975362;28;20229;-79
2023/12/28 02:41:11;;;;;;;3.27;2.03;;;;;;;;;;4958406;28;20259;-79
2023/12/28 02:43:41;;;;;;;1.87;1.60;;;;;;;;;;4978126;28;20253;-79
2023/12/28 02:46:06;;;;;;;2.87;1.90;;;;;;;;;;4958085;28;20503;-78
2023/12/28 02:48:38;;;;;;;1.90;1.80;;;;;;;;;;4991302;28;20653;-78
2023/12/28 02:51:03;;;;;;;2.30;2.00;;;;;;;;;;4984527;28;20221;-78
2023/12/28 02:53:32;;;;;;;2.03;1.83;;;;;;;;;;4959638;28;20225;-78
2023/12/28 02:56:02;;;;;;;1.70;1.60;;;;;;;;;;4997492;28;20246;-78
2023/12/28 02:58:30;;;;;;;3.03;2.10;;;;;;;;;;4961705;28;20234;-78
2023/12/28 03:00:56;;;;;;;2.10;1.80;;;;;;;;;;4965490;28;20277;-77
2023/12/28 03:03:24;;;;;;;2.07;1.87;;;;;;;;;;4964227;28;20687;-77
2023/12/28 03:05:54;;;;;;;2.17;1.80;;;;;;;;;;4971295;28;20229;-78
2023/12/28 03:08:23;;;;;;;1.70;1.60;;;;;;;;;;4975529;28;20230;-79
2023/12/28 03:10:49;;;;;;;2.17;1.97;;;;;;;;;;4964805;28;20221;-78
2023/12/28 03:13:15;;;;;;;1.90;1.70;;;;;;;;;;4974910;28;20251;-77
2023/12/28 03:15:43;;;;;;;2.83;1.70;;;;;;;;;;4964992;28;20236;-79
2023/12/28 03:18:14;;;;;;;2.50;1.87;;;;;;;;;;4972627;28;20221;-77
2023/12/28 03:20:40;;;;;;;4.20;1.90;;;;;;;;;;4965788;28;20231;-78
2023/12/28 03:23:08;;;;;;;3.83;1.70;;;;;;;;;;4985093;28;20226;-77
2023/12/28 03:25:38;;;;;;;2.30;2.10;;;;;;;;;;4979529;28;20225;-78
2023/12/28 03:28:04;;;;;;;2.70;1.90;;;;;;;;;;4994205;28;20233;-78
2023/12/28 03:30:32;;;;;;;1.90;1.80;;;;;;;;;;4987718;28;20218;-79
2023/12/28 03:32:57;;;;;;;2.17;1.97;;;;;;;;;;4965977;28;20237;-78
2023/12/28 03:35:24;;;;;;;2.60;2.20;;;;;;;;;;4975627;28;20265;-79
2023/12/28 03:37:52;;;;;;;2.33;2.00;;;;;;;;;;4974204;28;20238;-79
2023/12/28 03:40:20;;;;;;;3.60;2.13;;;;;;;;;;4953942;28;20273;-79
2023/12/28 03:42:53;;;;;;;2.43;1.93;;;;;;;;;;4954314;28;20225;-79
2023/12/28 03:45:20;;;;;;;2.37;2.10;;;;;;;;;;4964460;28;20305;-77
2023/12/28 03:47:46;;;;;;;3.67;2.43;;;;;;;;;;4977479;28;20238;-78
2023/12/28 03:50:16;;;;;;;5.57;2.17;;;;;;;;;;4977013;28;20224;-78
2023/12/28 03:52:44;;;;;;;4.50;2.67;;;;;;;;;;4980119;28;20312;-77
2023/12/28 03:55:13;;;;;;;2.30;2.10;;;;;;;;;;4962973;28;20221;-77
2023/12/28 03:57:46;;;;;;;2.47;2.10;;;;;;;;;;4987769;28;20237;-80
2023/12/28 04:04:01;;;;;;;2.23;2.00;;;;;;;;;;4994454;28;20232;-78
2023/12/28 04:06:29;;;;;;;6.50;2.23;;;;;;;;;;4976263;28;20225;-77
2023/12/28 04:08:58;;;;;;;2.30;2.20;;;;;;;;;;4991850;28;20237;-77
2023/12/28 04:11:25;;;;;;;2.67;2.43;;;;;;;;;;4969895;28;20225;-78
2023/12/28 04:13:54;;;;;;;2.73;2.43;;;;;;;;;;4960963;28;20715;-78
2023/12/28 04:16:27;;;;;;;2.80;1.93;;;;;;;;;;4977605;28;20240;-77
2023/12/28 04:18:53;;;;;;;3.13;2.40;;;;;;;;;;4977418;28;20233;-79
2023/12/28 04:21:21;;;;;;;2.50;2.30;;;;;;;;;;4977161;28;20804;-80
2023/12/28 04:23:47;;;;;;;2.90;2.63;;;;;;;;;;4962339;28;20221;-78
2023/12/28 04:26:12;;;;;;;2.43;2.23;;;;;;;;;;4983673;28;20232;-77
2023/12/28 04:28:41;;;;;;;2.67;2.37;;;;;;;;;;4961075;28;20252;-78
2023/12/28 04:31:09;;;;;;;3.47;2.40;;;;;;;;;;4991886;28;20218;-78
2023/12/28 04:33:34;;;;;;;2.90;2.60;;;;;;;;;;4961375;28;20763;-79
2023/12/28 04:36:06;;;;;;;3.00;2.40;;;;;;;;;;4961375;28;20233;-80
2023/12/28 04:38:32;;;;;;;2.87;2.47;;;;;;;;;;4983398;28;20310;-80
2023/12/28 04:40:59;;;;;;;2.57;2.37;;;;;;;;;;4961034;28;20210;-80
2023/12/28 04:43:27;;;;;;;2.70;2.50;;;;;;;;;;4975778;28;20241;-80
2023/12/28 04:45:55;;;;;;;4.57;2.77;;;;;;;;;;4962586;28;20213;-78
2023/12/28 04:48:25;;;;;;;2.60;2.40;;;;;;;;;;4967017;28;20751;-78
2023/12/28 04:50:53;;;;;;;2.60;2.40;;;;;;;;;;4968637;28;20209;-78
2023/12/28 04:53:19;;;;;;;2.50;2.30;;;;;;;;;;4995052;28;20214;-79
2023/12/28 04:55:44;;;;;;;2.63;2.40;;;;;;;;;;4965450;28;20233;-79
2023/12/28 04:58:10;;;;;;;3.00;2.37;;;;;;;;;;4987779;28;20277;-79
2023/12/28 05:00:36;;;;;;;2.47;2.27;;;;;;;;;;4981691;28;20284;-79
2023/12/28 05:03:04;;;;;;;4.10;2.30;;;;;;;;;;4966730;28;20253;-78
2023/12/28 05:05:32;;;;;;;3.03;2.40;;;;;;;;;;4994429;28;20221;-77
2023/12/28 05:08:00;;;;;;;4.10;1.90;;;;;;;;;;4990289;28;20289;-79
2023/12/28 05:10:27;;;;;;;2.40;2.20;;;;;;;;;;4962633;28;20222;-78
2023/12/28 05:12:55;;;;;;;2.83;2.43;;;;;;;;;;4964188;28;20275;-79
2023/12/28 05:15:21;;;;;;;2.40;2.20;;;;;;;;;;4967562;28;20249;-78
2023/12/28 05:17:51;;;;;;;2.10;2.00;;;;;;;;;;4980582;28;20249;-79
2023/12/28 05:20:17;;;;;;;3.03;2.47;;;;;;;;;;4977027;28;20236;-78
2023/12/28 05:22:43;;;;;;;3.73;2.07;;;;;;;;;;4976021;28;20221;-78
2023/12/28 05:25:10;;;;;;;2.23;2.13;;;;;;;;;;4976266;28;20233;-79
2023/12/28 05:27:43;;;;;;;2.83;2.20;;;;;;;;;;4982721;28;20234;-78
2023/12/28 05:30:11;;;;;;;2.80;2.13;;;;;;;;;;4964256;28;20229;-78
2023/12/28 05:32:39;;;;;;;3.23;2.30;;;;;;;;;;4951445;28;20206;-77
2023/12/28 05:35:09;;;;;;;2.23;2.03;;;;;;;;;;4967011;28;20265;-78
2023/12/28 05:37:37;;;;;;;2.43;1.87;;;;;;;;;;4979471;28;20500;-78
2023/12/28 05:40:03;;;;;;;3.40;2.10;;;;;;;;;;4967108;28;20232;-79
2023/12/28 05:42:28;;;;;;;4.00;2.27;;;;;;;;;;4966991;28;20224;-79
2023/12/28 05:44:58;;;;;;;3.40;2.17;;;;;;;;;;4995732;28;20708;-76
2023/12/28 05:47:24;;;;;;;2.97;1.90;;;;;;;;;;4986037;28;20214;-76
2023/12/28 05:49:49;;;;;;;2.67;1.80;;;;;;;;;;4976701;28;20236;-77
2023/12/28 05:52:19;;;;;;;3.67;2.10;;;;;;;;;;5006087;28;20218;-77
2023/12/28 05:54:47;;;;;;;2.37;1.90;;;;;;;;;;4971007;28;20234;-77
2023/12/28 05:57:13;;;;;;;2.13;1.93;;;;;;;;;;4982940;28;20267;-76
2023/12/28 05:59:41;;;;;;;6.53;2.00;;;;;;;;;;4996726;28;20218;-78
2023/12/28 06:02:07;;;;;;;2.30;2.00;;;;;;;;;;4963748;28;20221;-77
2023/12/28 06:04:33;;;;;;;1.90;1.70;;;;;;;;;;4986163;28;20218;-78
2023/12/28 06:07:02;;;;;;;4.37;1.93;;;;;;;;;;4977193;28;20620;-79
2023/12/28 06:09:27;;;;;;;2.53;1.90;;;;;;;;;;4957761;28;20242;-78
2023/12/28 06:11:53;;;;;;;4.20;2.10;;;;;;;;;;4991348;28;20217;-78
2023/12/28 06:14:21;;;;;;;2.60;1.87;;;;;;;;;;4968474;28;20217;-76
2023/12/28 06:16:46;;;;;;;4.13;2.27;;;;;;;;;;4980032;28;20245;-78
2023/12/28 06:19:14;;;;;;;4.30;2.10;;;;;;;;;;4970038;28;20619;-78
2023/12/28 06:21:42;;;;;;;3.63;2.10;;;;;;;;;;4975552;28;20229;-78
2023/12/28 06:24:08;;;;;;;2.60;1.70;;;;;;;;;;4958103;28;20229;-79
2023/12/28 06:26:33;;;;;;;2.00;1.80;;;;;;;;;;4963698;28;20225;-79
2023/12/28 06:28:59;;;;;;;3.63;2.00;;;;;;;;;;4958114;28;20493;-78
2023/12/28 06:31:24;;;;;;;3.07;1.93;;;;;;;;;;4945844;28;20210;-79
2023/12/28 06:33:53;;;;;;;3.63;1.83;;;;;;;;;;4987598;28;20234;-81
2023/12/28 06:36:24;;;;;;;2.83;1.93;;;;;;;;;;4986048;28;20276;-80
2023/12/28 06:38:49;;;;;;;4.37;2.00;;;;;;;;;;4949129;28;20714;-80
2023/12/28 06:41:17;;;;;;;2.57;2.00;;;;;;;;;;4966431;28;20210;-77
2023/12/28 06:43:47;;;;;;;2.60;2.17;;;;;;;;;;4949053;28;20284;-77
2023/12/28 06:46:12;;;;;;;4.03;2.10;;;;;;;;;;4986832;28;20222;-76
2023/12/28 06:48:41;;;;;;;1.97;1.80;;;;;;;;;;4996753;28;20240;-79
2023/12/28 06:51:11;;;;;;;2.03;1.73;;;;;;;;;;4965690;28;20731;-77
2023/12/28 06:53:39;;;;;;;2.57;2.00;;;;;;;;;;4964143;28;20209;-78
2023/12/28 06:56:05;;;;;;;3.70;1.80;;;;;;;;;;4969207;28;20225;-77
2023/12/28 06:58:33;;;;;;;3.20;1.77;;;;;;;;;;4994544;28;20247;-77
2023/12/28 07:01:07;;;;;;;4.23;2.00;;;;;;;;;;4973903;28;20229;-76
2023/12/28 07:03:32;;;;;;;2.57;1.90;;;;;;;;;;4983421;28;20234;-77
2023/12/28 07:05:59;;;;;;;2.70;2.00;;;;;;;;;;4980877;28;20240;-77
2023/12/28 07:08:27;;;;;;;4.53;1.83;;;;;;;;;;4985654;28;20225;-78
2023/12/28 07:10:53;;;;;;;2.60;1.80;;;;;;;;;;4988064;28;20245;-78
2023/12/28 07:13:23;;;;;;;4.73;1.90;;;;;;;;;;4980518;28;20218;-76
2023/12/28 07:15:54;;;;;;;7.73;2.00;;;;;;;;;;4984466;28;20229;-77
2023/12/28 07:18:19;;;;;;;4.13;1.90;;;;;;;;;;4985333;28;20222;-77
2023/12/28 07:20:45;;;;;;;2.87;1.60;;;;;;;;;;4951691;28;20240;-78
2023/12/28 07:23:15;;;;;;;3.63;1.80;;;;;;;;;;5005558;28;20222;-77
2023/12/28 07:25:40;;;;;;;4.37;2.10;;;;;;;;;;4979188;28;20234;-77
2023/12/28 07:28:08;;;;;;;2.10;1.57;;;;;;;;;;4964026;28;20225;-79
2023/12/28 07:30:36;;;;;;;5.43;2.07;;;;;;;;;;4978937;28;20229;-78
2023/12/28 07:33:01;;;;;;;2.50;1.77;;;;;;;;;;4964636;28;20883;-78
2023/12/28 07:35:27;;;;;;;2.40;1.60;;;;;;;;;;4981502;28;20248;-79
2023/12/28 07:37:52;;;;;;;2.93;1.63;;;;;;;;;;4976807;28;20218;-79
2023/12/28 07:40:20;;;;;;;2.43;1.70;;;;;;;;;;4969210;28;20233;-77
2023/12/28 07:42:48;;;;;;;1.93;1.50;;;;;;;;;;4972511;28;20226;-79
2023/12/28 07:45:17;;;;;;;2.60;1.60;;;;;;;;;;4986687;28;20286;-79
2023/12/28 07:47:43;;;;;;;3.80;1.47;;;;;;;;;;4982357;28;20217;-80
2023/12/28 07:50:10;;;;;;;2.33;1.53;;;;;;;;;;4958843;28;20225;-79
2023/12/28 07:52:38;;;;;;;2.83;1.70;;;;;;;;;;4968442;28;20230;-79
2023/12/28 07:55:04;;;;;;;3.00;2.33;;;;;;;;;;4986614;28;20229;-80
2023/12/28 07:57:30;;;;;;;10.97;7.93;;;;;;;;;;4947625;28;20242;-77
2023/12/28 08:00:01;;;;;;;20.57;11.10;;;;;;;;;;4973234;28;20210;-76
2023/12/28 08:02:27;;;;;;;21.13;12.27;;;;;;;;;;4986393;28;20301;-77
2023/12/28 08:04:55;;;;;;;5.00;2.50;;;;;;;;;;4998451;28;20222;-79
2023/12/28 08:07:23;;;;;;;5.13;1.90;;;;;;;;;;4953770;28;20240;-78
2023/12/28 08:09:48;;;;;;;4.20;1.63;;;;;;;;;;4987498;28;20221;-78
2023/12/28 08:12:17;;;;;;;2.43;1.50;;;;;;;;;;4996015;28;20237;-77
2023/12/28 08:14:47;;;;;;;5.47;1.73;;;;;;;;;;4999771;28;20221;-78
2023/12/28 08:17:13;;;;;;;5.77;1.70;;;;;;;;;;4969456;28;20256;-77
2023/12/28 08:19:40;;;;;;;4.93;1.63;;;;;;;;;;4997093;28;20225;-77
2023/12/28 08:22:06;;;;;;;2.83;1.40;;;;;;;;;;4982484;28;20257;-78
2023/12/28 08:24:36;;;;;;;3.00;1.87;;;;;;;;;;4999034;28;20230;-77
2023/12/28 08:27:03;;;;;;;4.57;1.73;;;;;;;;;;4984744;28;20238;-81
2023/12/28 08:29:29;;;;;;;2.40;1.87;;;;;;;;;;4970947;28;20229;-79
2023/12/28 08:31:57;;;;;;;5.33;1.60;;;;;;;;;;4972998;28;20224;-80
2023/12/28 08:34:27;;;;;;;4.10;1.77;;;;;;;;;;4981023;28;20217;-81
2023/12/28 08:36:55;;;;;;;9.00;1.87;;;;;;;;;;5002900;28;20222;-78
2023/12/28 08:39:24;;;;;;;4.87;1.67;;;;;;;;;;4983469;28;20256;-77
2023/12/28 08:41:52;;;;;;;6.67;1.97;;;;;;;;;;4988922;28;20217;-80
2023/12/28 08:44:17;;;;;;;6.63;1.90;;;;;;;;;;4952275;28;20206;-78
2023/12/28 08:46:45;;;;;;;4.20;1.70;;;;;;;;;;4966397;28;20229;-80
2023/12/28 08:49:11;;;;;;;3.73;2.27;;;;;;;;;;4992522;28;20301;-80
2023/12/28 08:51:39;;;;;;;4.17;1.60;;;;;;;;;;4975695;28;20218;-80
2023/12/28 08:54:08;;;;;;;8.27;1.93;;;;;;;;;;4982811;28;20216;-79
2023/12/28 08:56:36;;;;;;;4.53;1.93;;;;;;;;;;4980984;28;20228;-82
2023/12/28 08:59:01;;;;;;;3.87;1.60;;;;;;;;;;4963615;28;20226;-80
2023/12/28 09:01:32;;;;;;;6.53;2.27;;;;;;;;;;4968217;28;20308;-78
2023/12/28 09:04:01;;;;;;;5.00;2.00;;;;;;;;;;4954322;28;20218;-79
2023/12/28 09:06:29;;;;;;;3.67;1.90;;;;;;;;;;4961220;28;20252;-77
2023/12/28 09:08:57;;;;;;;4.20;1.70;;;;;;;;;;4979671;28;20226;-79
2023/12/28 09:11:30;;;;;;;4.33;1.80;;;;;;;;;;4968683;28;20221;-80
2023/12/28 09:13:59;;;;;;;4.63;2.07;;;;;;;;;;4961392;28;20226;-83
2023/12/28 09:16:28;;;;;;;3.47;1.57;;;;;;;;;;4972084;28;20218;-80
2023/12/28 09:18:54;;;;;;;3.47;1.87;;;;;;;;;;4973944;28;20225;-78
2023/12/28 09:21:21;;;;;;;7.70;3.53;;;;;;;;;;4964908;28;20240;-77
2023/12/28 09:23:49;;;;;;;7.07;4.07;;;;;;;;;;4987349;28;20261;-80
2023/12/28 09:26:17;;;;;;;6.33;3.43;;;;;;;;;;4964515;28;20227;-80
2023/12/28 09:28:43;;;;;;;6.60;2.73;;;;;;;;;;4978407;28;20241;-80
2023/12/28 09:31:11;;;;;;;14.13;7.47;;;;;;;;;;4972986;28;20561;-81
2023/12/28 09:33:40;;;;;;;6.43;4.40;;;;;;;;;;4963565;28;20259;-79
2023/12/28 09:36:06;;;;;;;20.87;7.60;;;;;;;;;;4983770;28;20221;-78
2023/12/28 09:38:34;;;;;;;12.93;7.63;;;;;;;;;;4978796;28;20234;-76
2023/12/28 09:41:15;;;;;;;16.77;10.57;;;;;;;;;;4994153;28;20586;-79
2023/12/28 09:43:51;;;;;;;34.70;22.27;;;;;;;;;;4980532;28;20228;-80
2023/12/28 09:46:16;;;;;;;6.57;1.73;;;;;;;;;;4975122;28;20218;-80
2023/12/28 09:48:42;;;;;;;3.77;1.73;;;;;;;;;;4944163;28;20249;-79
2023/12/28 09:51:07;;;;;;;1.90;1.50;;;;;;;;;;4976369;28;20233;-79
2023/12/28 09:53:33;;;;;;;4.73;1.60;;;;;;;;;;4962672;28;20222;-79
2023/12/28 09:55:59;;;;;;;2.80;1.47;;;;;;;;;;4964738;28;20229;-78
2023/12/28 09:58:29;;;;;;;5.03;1.30;;;;;;;;;;4966994;28;20233;-79
2023/12/28 10:00:57;;;;;;;2.93;1.70;;;;;;;;;;4999607;28;20607;-81
2023/12/28 10:03:27;;;;;;;2.10;1.60;;;;;;;;;;4963302;28;20758;-78
2023/12/28 10:05:57;;;;;;;4.73;1.83;;;;;;;;;;4994111;28;20616;-79
2023/12/28 10:08:22;;;;;;;2.67;1.57;;;;;;;;;;4966643;28;20217;-81
2023/12/28 10:10:53;;;;;;;2.20;1.20;;;;;;;;;;4962494;28;20715;-81
2023/12/28 10:13:19;;;;;;;3.37;1.70;;;;;;;;;;4972279;28;20224;-80
2023/12/28 10:15:49;;;;;;;3.53;1.60;;;;;;;;;;4988292;28;20232;-80
2023/12/28 10:18:18;;;;;;;4.87;1.90;;;;;;;;;;4966606;28;20675;-79
2023/12/28 10:20:49;;;;;;;4.83;1.50;;;;;;;;;;4965393;28;20400;-80
2023/12/28 10:23:14;;;;;;;6.37;1.60;;;;;;;;;;4987179;28;20300;-79
2023/12/28 10:25:40;;;;;;;2.47;1.40;;;;;;;;;;4991111;28;20230;-80
2023/12/28 10:28:07;;;;;;;3.27;1.57;;;;;;;;;;4955486;28;20231;-80
2023/12/28 10:30:35;;;;;;;5.97;4.20;;;;;;;;;;4965516;28;20236;-78
2023/12/28 10:33:01;;;;;;;4.40;2.20;;;;;;;;;;4999078;28;20680;-78
2023/12/28 10:35:28;;;;;;;5.87;1.67;;;;;;;;;;4975367;28;20229;-79
2023/12/28 10:37:53;;;;;;;2.90;1.53;;;;;;;;;;4983829;28;20278;-78
2023/12/28 10:40:20;;;;;;;3.83;1.80;;;;;;;;;;4983743;28;20651;-79
2023/12/28 10:42:57;;;;;;;2.20;1.17;;;;;;;;;;4973356;28;20229;-78
2023/12/28 10:45:25;;;;;;;2.90;1.20;;;;;;;;;;4972748;28;20221;-80
2023/12/28 10:48:24;;;;;;;5.87;2.10;;;;;;;;;;4968588;28;20233;-77
2023/12/28 10:50:49;;;;;;;4.60;1.70;;;;;;;;;;4980173;28;20256;-77
2023/12/28 10:53:23;;;;;;;3.63;1.67;;;;;;;;;;4969573;28;20233;-78
2023/12/28 10:56:11;;;;;;;3.43;1.70;;;;;;;;;;4974465;28;20222;-79
2023/12/28 10:58:41;;;;;;;4.07;2.00;;;;;;;;;;4998958;28;20271;-77
2023/12/28 11:01:09;;;;;;;2.80;1.80;;;;;;;;;;5013847;28;20277;-77
2023/12/28 11:03:36;;;;;;;3.47;1.80;;;;;;;;;;4981456;28;20226;-79
2023/12/28 11:06:05;;;;;;;5.77;1.97;;;;;;;;;;4954589;28;20225;-77
2023/12/28 11:08:33;;;;;;;5.60;2.50;;;;;;;;;;5000095;28;20233;-80
2023/12/28 11:11:04;;;;;;;5.30;2.30;;;;;;;;;;4965349;28;20263;-80
2023/12/28 11:13:30;;;;;;;5.03;1.87;;;;;;;;;;4991317;28;20225;-81
2023/12/28 11:16:00;;;;;;;2.57;1.70;;;;;;;;;;4967622;28;20241;-78
2023/12/28 11:18:31;;;;;;;3.27;1.63;;;;;;;;;;4981441;28;20289;-79
2023/12/28 11:20:59;;;;;;;8.17;1.80;;;;;;;;;;4976720;28;20296;-80
2023/12/28 11:23:24;;;;;;;3.93;1.83;;;;;;;;;;4984055;28;20225;-79
2023/12/28 11:25:53;;;;;;;6.80;2.07;;;;;;;;;;4988292;28;20241;-78
2023/12/28 11:28:19;;;;;;;6.00;2.17;;;;;;;;;;4983638;28;20221;-79
2023/12/28 11:30:49;;;;;;;3.37;1.73;;;;;;;;;;4975146;28;20640;-79
2023/12/28 11:33:16;;;;;;;7.90;2.00;;;;;;;;;;4954192;28;20714;-79
2023/12/28 11:35:42;;;;;;;4.40;2.10;;;;;;;;;;4956046;28;20221;-81
2023/12/28 11:38:12;;;;;;;3.97;1.70;;;;;;;;;;4960936;28;20217;-80
2023/12/28 11:40:46;;;;;;;6.27;2.40;;;;;;;;;;4961391;28;20245;-79
2023/12/28 11:43:19;;;;;;;4.57;1.90;;;;;;;;;;4977934;28;20242;-79
2023/12/28 11:45:51;;;;;;;3.73;1.90;;;;;;;;;;4981209;28;20240;-79
2023/12/28 11:48:25;;;;;;;3.50;1.83;;;;;;;;;;4985344;28;20731;-80
2023/12/28 11:50:57;;;;;;;4.47;1.80;;;;;;;;;;4985119;28;20273;-81
2023/12/28 11:53:27;;;;;;;3.63;1.87;;;;;;;;;;4998303;28;20221;-79
2023/12/28 11:56:03;;;;;;;4.50;1.87;;;;;;;;;;4993962;28;20277;-82
2023/12/28 11:58:30;;;;;;;5.70;1.93;;;;;;;;;;4979091;28;20244;-79
2023/12/28 12:00:58;;;;;;;3.07;1.90;;;;;;;;;;4956883;28;20246;-81
2023/12/28 12:03:27;;;;;;;5.33;3.33;;;;;;;;;;4993721;28;20233;-79
2023/12/28 12:05:54;;;;;;;4.60;2.13;;;;;;;;;;4951512;28;20257;-81
2023/12/28 12:08:19;;;;;;;8.07;3.47;;;;;;;;;;4969075;28;20226;-82
2023/12/28 12:10:47;;;;;;;4.80;2.13;;;;;;;;;;4985187;28;20284;-81
2023/12/28 12:13:16;;;;;;;4.97;2.00;;;;;;;;;;4976097;28;20281;-82
2023/12/28 12:15:43;;;;;;;5.73;2.30;;;;;;;;;;4972423;28;20228;-80
2023/12/28 12:18:09;;;;;;;9.17;2.70;;;;;;;;;;4989633;28;20221;-81
2023/12/28 12:20:40;;;;;;;3.87;2.13;;;;;;;;;;4949218;28;20214;-82
2023/12/28 12:23:05;;;;;;;10.43;2.63;;;;;;;;;;4989467;28;20325;-86
2023/12/28 12:25:33;;;;;;;4.00;2.03;;;;;;;;;;4975154;28;20312;-80
2023/12/28 12:28:03;;;;;;;4.90;2.33;;;;;;;;;;5004866;28;20280;-81
2023/12/28 12:30:31;;;;;;;5.67;2.47;;;;;;;;;;5001164;28;20282;-79
2023/12/28 12:32:59;;;;;;;4.17;1.93;;;;;;;;;;4993503;28;20340;-82
2023/12/28 12:35:27;;;;;;;5.27;2.33;;;;;;;;;;4995124;28;20226;-82
2023/12/28 12:37:54;;;;;;;5.20;2.17;;;;;;;;;;4983671;28;20228;-82
2023/12/28 12:40:21;;;;;;;7.13;2.33;;;;;;;;;;4957764;28;20857;-80
2023/12/28 12:42:53;;;;;;;5.60;2.13;;;;;;;;;;4980537;28;20234;-82
2023/12/28 12:45:21;;;;;;;4.40;2.27;;;;;;;;;;4964992;28;20237;-82
2023/12/28 12:47:52;;;;;;;5.83;1.97;;;;;;;;;;4978850;28;20380;-80
2023/12/28 12:50:22;;;;;;;6.03;2.40;;;;;;;;;;4969819;28;20883;-80
2023/12/28 12:52:50;;;;;;;3.37;1.83;;;;;;;;;;4957922;28;20718;-78
2023/12/28 12:55:16;;;;;;;5.53;2.17;;;;;;;;;;4971438;28;20229;-79
2023/12/28 12:57:45;;;;;;;9.20;3.13;;;;;;;;;;4969259;28;20242;-81
2023/12/28 13:00:11;;;;;;;5.70;2.30;;;;;;;;;;4970755;28;20221;-80
2023/12/28 13:02:39;;;;;;;8.20;4.13;;;;;;;;;;4972991;28;20229;-81
2023/12/28 13:05:10;;;;;;;13.87;5.57;;;;;;;;;;4987778;28;20222;-80
2023/12/28 13:07:37;;;;;;;13.77;7.67;;;;;;;;;;4972776;28;20322;-80
2023/12/28 13:10:03;;;;;;;7.63;3.50;;;;;;;;;;4970909;28;20232;-80
2023/12/28 13:12:29;;;;;;;5.07;2.27;;;;;;;;;;4977052;28;20234;-79
2023/12/28 13:14:55;;;;;;;5.87;2.50;;;;;;;;;;4975414;28;20222;-82
2023/12/28 13:17:22;;;;;;;6.83;2.20;;;;;;;;;;4970873;28;20229;-82
2023/12/28 13:19:52;;;;;;;7.37;2.60;;;;;;;;;;4998072;28;20233;-81
2023/12/28 13:22:18;;;;;;;9.03;2.30;;;;;;;;;;4979011;28;20308;-81
2023/12/28 13:24:46;;;;;;;7.30;2.37;;;;;;;;;;4957340;28;20268;-81
2023/12/28 13:27:14;;;;;;;6.13;2.33;;;;;;;;;;5004196;28;20315;-81
2023/12/28 13:29:45;;;;;;;6.67;2.27;;;;;;;;;;5005874;28;20718;-82
2023/12/28 13:32:13;;;;;;;5.90;2.40;;;;;;;;;;4983605;28;20233;-80
2023/12/28 13:34:43;;;;;;;6.33;2.23;;;;;;;;;;5009413;28;20229;-81
2023/12/28 13:37:09;;;;;;;5.87;2.30;;;;;;;;;;5004314;28;20225;-80
2023/12/28 13:39:38;;;;;;;8.30;2.43;;;;;;;;;;5005409;28;20225;-81
2023/12/28 13:42:12;;;;;;;4.93;2.00;;;;;;;;;;4968749;28;20234;-82
2023/12/28 13:44:39;;;;;;;7.73;2.37;;;;;;;;;;4967339;28;20216;-81
2023/12/28 13:47:10;;;;;;;7.73;2.57;;;;;;;;;;4984996;28;20412;-82
2023/12/28 13:49:36;;;;;;;6.17;2.40;;;;;;;;;;4965499;28;21034;-80
2023/12/28 13:52:04;;;;;;;5.87;2.57;;;;;;;;;;4990246;28;20221;-82
2023/12/28 13:54:30;;;;;;;10.27;2.70;;;;;;;;;;4979164;28;20258;-81
2023/12/28 13:56:59;;;;;;;11.67;2.50;;;;;;;;;;4989706;28;20226;-82
2023/12/28 13:59:24;;;;;;;8.00;2.43;;;;;;;;;;4985122;28;20234;-82
2023/12/28 14:01:50;;;;;;;6.60;2.43;;;;;;;;;;4974808;28;20249;-80
2023/12/28 14:04:18;;;;;;;9.07;2.70;;;;;;;;;;4985358;28;20237;-82
2023/12/28 14:06:43;;;;;;;5.87;2.60;;;;;;;;;;4960815;28;20221;-81
2023/12/28 14:09:14;;;;;;;6.97;2.47;;;;;;;;;;4969674;28;20237;-82
2023/12/28 14:11:40;;;;;;;9.73;2.57;;;;;;;;;;4978813;28;20229;-79
2023/12/28 14:14:05;;;;;;;8.43;2.53;;;;;;;;;;4987080;28;20295;-79
2023/12/28 14:16:33;;;;;;;4.93;2.50;;;;;;;;;;4956915;28;20237;-80
2023/12/28 14:18:59;;;;;;;6.17;2.10;;;;;;;;;;4984829;28;20237;-78
2023/12/28 14:21:27;;;;;;;9.33;2.87;;;;;;;;;;4991054;28;20245;-79
2023/12/28 14:23:58;;;;;;;5.60;2.20;;;;;;;;;;4976261;28;20241;-77
2023/12/28 14:26:30;;;;;;;6.97;2.40;;;;;;;;;;4995660;28;20272;-80
2023/12/28 14:28:56;;;;;;;5.73;3.00;;;;;;;;;;4954172;28;20244;-80
2023/12/28 14:31:25;;;;;;;7.10;2.57;;;;;;;;;;4995068;28;20225;-81
2023/12/28 14:33:54;;;;;;;4.27;2.17;;;;;;;;;;4989890;28;20264;-79
2023/12/28 14:36:35;;;;;;;7.37;2.87;;;;;;;;;;4991358;28;20221;-83
2023/12/28 14:39:07;;;;;;;12.20;2.30;;;;;;;;;;4987757;28;20288;-81
2023/12/28 14:41:38;;;;;;;6.93;2.83;;;;;;;;;;4986876;28;20229;-81
2023/12/28 14:44:08;;;;;;;6.87;2.53;;;;;;;;;;4986574;28;20275;-82
2023/12/28 14:46:34;;;;;;;5.73;2.20;;;;;;;;;;4990079;28;20226;-80
2023/12/28 14:49:04;;;;;;;8.50;3.20;;;;;;;;;;4998338;28;20229;-79
2023/12/28 14:51:34;;;;;;;10.50;3.50;;;;;;;;;;4960116;28;20230;-79